Time;durP1;ratioP1;P1;durP2;ratioP2;P2;SDS_P1;SDS_P2;PMS_P1;PMS_P2;Temp;Humidity;BMP_temperature;BMP_pressure;BME280_temperature;BME280_humidity;BME280_pressure;Samples;Min_cycle;Max_cycle;Signal;HPM_P1;HPM_P2
2022/11/30 00:00:40;;;;;;;5.88;4.05;;;16.50;58.60;;;;;;5109308;27;45188;-72
2022/11/30 00:03:07;;;;;;;4.13;3.58;;;16.50;58.60;;;;;;5109163;27;45252;-72
2022/11/30 00:05:35;;;;;;;5.25;3.63;;;16.50;58.60;;;;;;5108822;27;46761;-72
2022/11/30 00:08:02;;;;;;;6.47;3.90;;;16.50;58.60;;;;;;5109275;27;45307;-72
2022/11/30 00:10:28;;;;;;;6.30;3.88;;;16.50;58.60;;;;;;5109045;27;45232;-72
2022/11/30 00:12:57;;;;;;;4.28;3.58;;;16.50;58.50;;;;;;5109034;27;45526;-71
2022/11/30 00:15:24;;;;;;;4.65;3.70;;;16.50;59.10;;;;;;5108775;27;46511;-72
2022/11/30 00:17:51;;;;;;;4.97;3.28;;;16.50;58.50;;;;;;5108732;27;45317;-72
2022/11/30 00:20:18;;;;;;;3.70;3.40;;;16.50;58.50;;;;;;5108320;27;45299;-73
2022/11/30 00:22:45;;;;;;;3.92;3.47;;;16.40;58.50;;;;;;5108516;27;45395;-72
2022/11/30 00:25:12;;;;;;;4.50;3.60;;;16.40;58.50;;;;;;5108539;27;45308;-72
2022/11/30 00:27:38;;;;;;;4.50;3.17;;;16.50;58.60;;;;;;5108716;27;45288;-72
2022/11/30 00:30:08;;;;;;;4.35;3.38;;;16.40;58.60;;;;;;5108596;27;45284;-72
2022/11/30 00:32:35;;;;;;;4.75;3.55;;;16.40;58.60;;;;;;5108439;27;45557;-71
2022/11/30 00:35:02;;;;;;;4.60;3.35;;;16.40;59.10;;;;;;5108057;27;45383;-72
2022/11/30 00:37:29;;;;;;;3.58;3.20;;;16.40;58.60;;;;;;5108648;27;45512;-72
2022/11/30 00:39:56;;;;;;;3.92;3.42;;;16.40;58.60;;;;;;5096668;27;45273;-72
2022/11/30 00:42:23;;;;;;;4.05;3.47;;;16.40;58.60;;;;;;5088224;28;45353;-72
2022/11/30 00:44:50;;;;;;;4.28;3.88;;;16.40;58.70;;;;;;5087806;28;46715;-72
2022/11/30 00:47:18;;;;;;;3.83;3.53;;;16.30;58.70;;;;;;5101333;27;45299;-72
2022/11/30 00:49:45;;;;;;;4.18;3.78;;;16.30;58.70;;;;;;5108549;27;45252;-72
2022/11/30 00:52:12;;;;;;;4.38;3.70;;;16.40;58.70;;;;;;5108273;27;45331;-72
2022/11/30 00:54:38;;;;;;;3.95;3.35;;;16.30;58.70;;;;;;5108160;27;45384;-72
2022/11/30 00:57:06;;;;;;;5.78;4.00;;;16.40;58.80;;;;;;5108273;27;45191;-72
2022/11/30 00:59:32;;;;;;;4.63;3.50;;;16.30;58.70;;;;;;5108388;27;45233;-72
2022/11/30 01:01:59;;;;;;;5.05;3.78;;;16.30;58.70;;;;;;5108467;27;45407;-72
2022/11/30 01:04:28;;;;;;;4.05;3.40;;;16.30;58.70;;;;;;5108052;27;45374;-72
2022/11/30 01:06:54;;;;;;;6.22;4.20;;;16.30;58.70;;;;;;5108128;27;45255;-72
2022/11/30 01:09:21;;;;;;;4.72;4.03;;;16.30;58.70;;;;;;5108194;27;45270;-72
2022/11/30 01:11:48;;;;;;;4.47;3.40;;;16.30;58.70;;;;;;5108471;27;45177;-72
2022/11/30 01:14:15;;;;;;;3.55;3.25;;;16.30;58.70;;;;;;5107748;27;45883;-72
2022/11/30 01:16:42;;;;;;;3.75;3.20;;;16.30;58.70;;;;;;5107388;27;45427;-72
2022/11/30 01:19:09;;;;;;;3.92;3.55;;;16.30;58.60;;;;;;5107989;27;45298;-72
2022/11/30 01:21:37;;;;;;;4.18;3.47;;;16.30;58.70;;;;;;5108298;27;45346;-72
2022/11/30 01:24:05;;;;;;;4.40;3.53;;;16.30;58.70;;;;;;5107707;27;46379;-72
2022/11/30 01:26:32;;;;;;;6.18;4.07;;;16.30;58.70;;;;;;5107828;27;45304;-72
2022/11/30 01:28:59;;;;;;;3.90;3.50;;;16.30;58.60;;;;;;5107744;27;45296;-72
2022/11/30 01:31:26;;;;;;;3.90;2.88;;;16.30;58.70;;;;;;5108030;27;45176;-72
2022/11/30 01:33:54;;;;;;;4.57;3.63;;;16.30;58.70;;;;;;5106594;27;46405;-72
2022/11/30 01:36:21;;;;;;;4.47;3.75;;;16.30;58.70;;;;;;5107716;27;45495;-72
2022/11/30 01:38:51;;;;;;;4.72;3.58;;;16.30;58.70;;;;;;5097693;27;45344;-72
2022/11/30 01:41:20;;;;;;;4.20;3.42;;;16.30;58.70;;;;;;5108120;27;45204;-72
2022/11/30 01:43:48;;;;;;;3.67;3.35;;;16.30;58.70;;;;;;5107372;27;45563;-72
2022/11/30 01:46:30;;;;;;;3.95;3.17;;;16.30;58.80;;;;;;5102664;27;45178;-72
2022/11/30 01:49:03;;;;;;;4.45;3.50;;;16.30;58.60;;;;;;5087110;28;45216;-72
2022/11/30 01:51:32;;;;;;;3.72;3.40;;;16.50;58.50;;;;;;5086699;28;45538;-71
2022/11/30 01:54:01;;;;;;;3.75;3.10;;;16.50;58.40;;;;;;5086607;28;45292;-72
2022/11/30 01:56:27;;;;;;;4.32;3.42;;;16.50;58.10;;;;;;5087047;28;45198;-72
2022/11/30 01:58:54;;;;;;;3.25;2.95;;;16.50;58.00;;;;;;5087122;28;45174;-72
2022/11/30 02:01:21;;;;;;;3.92;3.40;;;16.50;57.90;;;;;;5086992;28;45434;-72
2022/11/30 02:03:51;;;;;;;4.50;3.35;;;16.50;57.90;;;;;;5086657;28;47640;-72
2022/11/30 02:06:18;;;;;;;5.07;3.60;;;16.50;57.80;;;;;;5086807;28;45136;-72
2022/11/30 02:08:45;;;;;;;3.65;3.17;;;16.50;57.80;;;;;;5086255;28;45305;-72
2022/11/30 02:11:14;;;;;;;3.47;3.08;;;16.50;57.80;;;;;;5086472;28;45221;-72
2022/11/30 02:13:51;;;;;;;3.70;3.20;;;16.50;57.80;;;;;;5086326;28;45634;-72
2022/11/30 02:16:22;;;;;;;4.25;3.40;;;16.50;57.80;;;;;;5086655;28;45198;-72
2022/11/30 02:18:53;;;;;;;3.25;2.95;;;16.50;57.80;;;;;;5086583;28;45470;-73
2022/11/30 02:21:23;;;;;;;4.13;3.35;;;16.50;57.80;;;;;;5086872;28;45379;-72
2022/11/30 02:24:05;;;;;;;3.65;3.35;;;16.50;58.40;;;;;;5086097;28;46805;-72
2022/11/30 02:27:03;;;;;;;4.25;3.50;;;16.50;57.80;;;;;;5086139;28;45307;-72
2022/11/30 02:29:32;;;;;;;3.40;2.97;;;16.50;57.80;;;;;;5085985;28;45173;-72
2022/11/30 02:32:02;;;;;;;4.05;3.20;;;16.50;57.80;;;;;;5086344;28;45387;-72
2022/11/30 02:34:29;;;;;;;4.47;3.13;;;16.50;57.80;;;;;;5086246;28;45526;-72
2022/11/30 02:36:57;;;;;;;3.80;3.40;;;16.50;57.90;;;;;;5086239;28;45201;-72
2022/11/30 02:39:23;;;;;;;4.05;3.20;;;16.40;57.90;;;;;;5093736;27;45254;-72
2022/11/30 02:41:51;;;;;;;3.80;3.40;;;16.40;57.90;;;;;;5107201;27;45379;-72
2022/11/30 02:44:18;;;;;;;4.35;3.30;;;16.40;57.90;;;;;;5106433;27;47136;-71
2022/11/30 02:47:05;;;;;;;3.67;3.25;;;16.40;57.90;;;;;;5097704;27;45314;-72
2022/11/30 02:49:34;;;;;;;4.10;3.42;;;16.40;58.00;;;;;;5086215;28;45268;-71
2022/11/30 02:52:00;;;;;;;3.38;3.08;;;16.40;58.00;;;;;;5085994;28;45396;-72
2022/11/30 02:54:28;;;;;;;3.85;3.47;;;16.40;58.00;;;;;;5085995;28;46392;-72
2022/11/30 02:56:54;;;;;;;5.30;3.13;;;16.40;58.00;;;;;;5086180;28;45336;-72
2022/11/30 02:59:21;;;;;;;4.90;3.17;;;16.40;58.00;;;;;;5086125;28;45281;-72
2022/11/30 03:01:48;;;;;;;3.75;3.10;;;16.40;58.00;;;;;;5086276;28;45192;-71
2022/11/30 03:04:17;;;;;;;3.58;3.03;;;16.40;58.00;;;;;;5085954;28;46400;-72
2022/11/30 03:06:44;;;;;;;3.63;3.30;;;16.30;58.00;;;;;;5085829;28;45345;-72
2022/11/30 03:09:11;;;;;;;3.25;2.90;;;16.30;58.00;;;;;;5086276;28;45238;-72
2022/11/30 03:11:38;;;;;;;3.97;3.08;;;16.30;58.00;;;;;;5086120;28;45261;-72
2022/11/30 03:14:04;;;;;;;3.28;2.97;;;16.40;58.10;;;;;;5085658;28;46400;-72
2022/11/30 03:16:32;;;;;;;3.70;3.05;;;16.30;58.10;;;;;;5085853;28;45379;-72
2022/11/30 03:18:59;;;;;;;4.28;3.42;;;16.30;58.10;;;;;;5085599;28;45388;-71
2022/11/30 03:21:28;;;;;;;3.20;2.90;;;16.30;58.00;;;;;;5085445;28;45188;-72
2022/11/30 03:23:54;;;;;;;3.03;2.60;;;16.30;58.10;;;;;;5085531;28;46840;-72
2022/11/30 03:26:21;;;;;;;3.22;2.92;;;16.30;58.10;;;;;;5085786;28;45321;-72
2022/11/30 03:28:48;;;;;;;3.00;2.80;;;16.30;58.10;;;;;;5085883;28;45357;-72
2022/11/30 03:31:15;;;;;;;3.63;3.30;;;16.30;58.70;;;;;;5085910;28;45299;-71
2022/11/30 03:33:42;;;;;;;3.88;2.97;;;16.30;58.10;;;;;;5085470;28;45199;-72
2022/11/30 03:36:10;;;;;;;4.10;3.15;;;16.30;58.10;;;;;;5085601;28;45197;-72
2022/11/30 03:38:39;;;;;;;3.63;3.00;;;16.30;58.10;;;;;;5086388;27;45446;-72
2022/11/30 03:41:06;;;;;;;3.72;3.20;;;16.20;58.10;;;;;;5106347;27;45411;-72
2022/11/30 03:43:33;;;;;;;3.28;2.80;;;16.20;58.10;;;;;;5105660;27;46643;-72
2022/11/30 03:46:00;;;;;;;3.45;2.90;;;16.20;58.10;;;;;;5103222;27;45270;-72
2022/11/30 03:48:27;;;;;;;4.03;2.83;;;16.20;58.10;;;;;;5085816;28;45320;-72
2022/11/30 03:50:54;;;;;;;3.15;2.85;;;16.20;58.10;;;;;;5085459;28;45312;-72
2022/11/30 03:53:22;;;;;;;3.65;2.95;;;16.20;58.20;;;;;;5085149;28;46491;-72
2022/11/30 03:55:54;;;;;;;3.65;3.25;;;16.20;58.20;;;;;;5085673;27;45185;-72
2022/11/30 03:58:22;;;;;;;3.33;2.90;;;16.20;58.30;;;;;;5088987;28;45272;-71
2022/11/30 04:00:49;;;;;;;3.05;2.75;;;16.20;58.40;;;;;;5089077;28;45499;-72
2022/11/30 04:03:16;;;;;;;3.17;2.72;;;16.10;58.40;;;;;;5088804;28;47027;-72
2022/11/30 04:05:43;;;;;;;4.03;3.03;;;16.20;58.40;;;;;;5088227;28;46120;-72
2022/11/30 04:08:10;;;;;;;3.28;2.90;;;16.10;58.50;;;;;;5088613;28;45374;-71
2022/11/30 04:10:36;;;;;;;3.55;2.70;;;16.10;58.50;;;;;;5088908;28;45239;-72
2022/11/30 04:13:05;;;;;;;3.63;3.05;;;16.10;58.50;;;;;;5088264;28;47305;-72
2022/11/30 04:15:31;;;;;;;3.83;3.00;;;16.10;58.50;;;;;;5088559;28;45362;-72
2022/11/30 04:17:58;;;;;;;3.13;2.80;;;16.10;58.40;;;;;;5088588;28;45320;-72
2022/11/30 04:20:25;;;;;;;2.97;2.60;;;16.10;58.50;;;;;;5088868;28;45310;-72
2022/11/30 04:22:52;;;;;;;3.00;2.72;;;16.10;58.60;;;;;;5088096;28;46873;-72
2022/11/30 04:25:19;;;;;;;5.65;3.25;;;16.10;58.60;;;;;;5088445;28;45266;-72
2022/11/30 04:27:46;;;;;;;4.50;2.92;;;16.10;58.60;;;;;;5088628;28;45409;-71
2022/11/30 04:30:16;;;;;;;3.05;2.60;;;16.10;58.60;;;;;;5088604;28;45520;-71
2022/11/30 04:32:43;;;;;;;3.00;2.70;;;16.10;58.60;;;;;;5087987;28;45567;-72
2022/11/30 04:35:10;;;;;;;3.38;3.08;;;16.10;58.50;;;;;;5088264;28;45209;-71
2022/11/30 04:37:37;;;;;;;3.05;2.72;;;16.10;58.50;;;;;;5088252;28;45248;-72
2022/11/30 04:40:04;;;;;;;3.10;2.80;;;16.10;58.40;;;;;;5101156;27;45458;-71
2022/11/30 04:42:31;;;;;;;3.45;2.67;;;16.10;58.40;;;;;;5108325;27;45640;-72
2022/11/30 04:44:58;;;;;;;3.45;2.70;;;16.10;58.40;;;;;;5108672;27;45221;-72
2022/11/30 04:47:26;;;;;;;2.85;2.63;;;16.10;58.40;;;;;;5093920;27;45247;-72
2022/11/30 04:49:53;;;;;;;2.60;2.40;;;16.10;58.40;;;;;;5087729;28;45306;-72
2022/11/30 04:52:20;;;;;;;2.90;2.60;;;16.10;58.40;;;;;;5087214;28;45929;-72
2022/11/30 04:54:47;;;;;;;2.65;2.45;;;16.10;58.40;;;;;;5087944;28;45192;-72
2022/11/30 04:57:14;;;;;;;2.53;2.30;;;16.10;58.40;;;;;;5088180;28;45245;-71
2022/11/30 04:59:41;;;;;;;2.75;2.55;;;16.10;58.40;;;;;;5088118;28;45453;-72
2022/11/30 05:02:08;;;;;;;3.42;2.78;;;16.10;58.40;;;;;;5087644;28;46874;-72
2022/11/30 05:04:37;;;;;;;4.43;2.65;;;16.10;58.40;;;;;;5087845;28;45328;-72
2022/11/30 05:07:04;;;;;;;2.83;2.55;;;16.10;58.40;;;;;;5087281;28;45201;-71
2022/11/30 05:09:31;;;;;;;3.25;2.95;;;16.10;58.40;;;;;;5087615;28;45185;-72
2022/11/30 05:11:58;;;;;;;3.63;2.65;;;16.10;58.40;;;;;;5087579;28;45416;-72
2022/11/30 05:14:25;;;;;;;3.53;2.72;;;16.00;58.30;;;;;;5087585;28;45301;-71
2022/11/30 05:16:52;;;;;;;2.92;2.40;;;16.10;58.40;;;;;;5087593;28;45232;-72
2022/11/30 05:19:19;;;;;;;3.30;2.88;;;16.00;58.40;;;;;;5087866;28;45218;-72
2022/11/30 05:21:47;;;;;;;3.08;2.35;;;16.00;58.40;;;;;;5087326;28;46687;-72
2022/11/30 05:24:14;;;;;;;3.15;2.78;;;16.00;58.40;;;;;;5087385;28;45246;-71
2022/11/30 05:26:41;;;;;;;3.35;2.50;;;16.00;58.50;;;;;;5087592;28;45265;-72
2022/11/30 05:29:08;;;;;;;2.30;2.10;;;16.00;58.50;;;;;;5087658;28;45199;-71
2022/11/30 05:31:35;;;;;;;3.28;2.97;;;16.10;58.40;;;;;;5087134;28;45350;-70
2022/11/30 05:34:01;;;;;;;2.92;2.60;;;16.20;58.30;;;;;;5086105;28;45408;-71
2022/11/30 05:36:28;;;;;;;3.00;2.33;;;16.20;58.20;;;;;;5087424;28;45356;-71
2022/11/30 05:38:57;;;;;;;3.38;2.75;;;16.30;58.70;;;;;;5090354;27;45234;-71
2022/11/30 05:41:24;;;;;;;2.28;2.08;;;16.30;57.90;;;;;;5107955;27;46989;-71
2022/11/30 05:43:50;;;;;;;2.70;2.33;;;16.30;57.70;;;;;;5107530;27;45198;-71
2022/11/30 05:46:17;;;;;;;2.60;2.40;;;16.30;58.30;;;;;;5102845;27;45368;-71
2022/11/30 05:48:44;;;;;;;2.58;2.20;;;16.40;57.70;;;;;;5087295;28;45383;-71
2022/11/30 05:51:14;;;;;;;2.70;2.50;;;16.30;57.60;;;;;;5086550;28;46662;-71
2022/11/30 05:53:42;;;;;;;2.97;2.50;;;16.40;57.60;;;;;;5086868;28;45198;-72
2022/11/30 05:56:11;;;;;;;3.45;2.40;;;16.40;57.60;;;;;;5086881;28;45369;-71
2022/11/30 05:58:38;;;;;;;2.45;2.25;;;16.30;57.50;;;;;;5087038;28;45519;-72
2022/11/30 06:01:06;;;;;;;2.42;2.22;;;16.30;57.60;;;;;;5086917;28;46987;-71
2022/11/30 06:03:33;;;;;;;2.63;2.42;;;16.40;57.60;;;;;;5086944;28;45293;-71
2022/11/30 06:06:00;;;;;;;2.40;2.20;;;16.40;57.60;;;;;;5086943;28;45311;-71
2022/11/30 06:08:27;;;;;;;2.50;2.30;;;16.30;57.60;;;;;;5087053;28;45135;-72
2022/11/30 06:10:54;;;;;;;3.25;2.30;;;16.30;57.60;;;;;;5086828;28;47492;-71
2022/11/30 06:13:22;;;;;;;2.65;2.20;;;16.30;57.60;;;;;;5086399;28;45408;-71
2022/11/30 06:15:49;;;;;;;2.38;2.17;;;16.30;58.20;;;;;;5086526;28;45300;-71
2022/11/30 06:18:16;;;;;;;2.13;1.92;;;16.30;57.60;;;;;;5086093;28;45443;-71
2022/11/30 06:20:43;;;;;;;2.72;2.42;;;16.30;57.60;;;;;;5086017;28;47050;-71
2022/11/30 06:23:10;;;;;;;2.58;2.20;;;16.30;57.60;;;;;;5086662;28;45324;-71
2022/11/30 06:25:37;;;;;;;2.28;2.08;;;16.30;58.20;;;;;;5086648;28;45288;-71
2022/11/30 06:28:04;;;;;;;2.20;2.03;;;16.30;57.60;;;;;;5086684;28;45265;-71
2022/11/30 06:30:32;;;;;;;2.10;1.90;;;16.30;57.70;;;;;;5086091;28;45616;-71
2022/11/30 06:32:59;;;;;;;2.03;1.92;;;16.30;57.70;;;;;;5086082;28;45224;-71
2022/11/30 06:35:26;;;;;;;2.60;2.20;;;16.30;57.70;;;;;;5086270;28;45419;-72
2022/11/30 06:37:54;;;;;;;2.33;2.13;;;16.30;57.70;;;;;;5086446;28;45451;-71
2022/11/30 06:40:21;;;;;;;2.30;2.00;;;16.20;57.70;;;;;;5101326;27;46631;-72
2022/11/30 06:42:48;;;;;;;2.25;2.00;;;16.20;57.70;;;;;;5106874;27;45258;-71
2022/11/30 06:45:15;;;;;;;1.98;1.80;;;16.20;57.70;;;;;;5107059;27;45229;-71
2022/11/30 06:47:43;;;;;;;2.58;2.33;;;16.20;57.70;;;;;;5089989;27;45312;-71
2022/11/30 06:50:10;;;;;;;2.33;2.03;;;16.20;57.80;;;;;;5086042;28;45727;-71
2022/11/30 06:52:37;;;;;;;1.90;1.80;;;16.20;57.80;;;;;;5085906;28;45343;-71
2022/11/30 06:55:05;;;;;;;2.38;2.17;;;16.20;57.80;;;;;;5086274;28;45176;-71
2022/11/30 06:57:32;;;;;;;2.20;2.00;;;16.20;57.80;;;;;;5085956;28;45341;-71
2022/11/30 06:59:59;;;;;;;2.03;1.92;;;16.20;57.80;;;;;;5086048;28;45565;-71
2022/11/30 07:02:26;;;;;;;2.17;2.08;;;16.20;57.80;;;;;;5085320;28;45300;-71
2022/11/30 07:04:54;;;;;;;1.88;1.75;;;16.20;57.90;;;;;;5086121;28;45220;-71
2022/11/30 07:07:21;;;;;;;1.80;1.70;;;16.20;57.90;;;;;;5086190;28;45185;-72
2022/11/30 07:09:48;;;;;;;2.33;1.83;;;16.10;57.90;;;;;;5086030;28;47987;-71
2022/11/30 07:12:15;;;;;;;2.08;1.88;;;16.20;57.90;;;;;;5085561;28;45292;-71
2022/11/30 07:14:43;;;;;;;2.35;2.15;;;16.20;58.50;;;;;;5086032;28;45209;-71
2022/11/30 07:17:10;;;;;;;2.20;2.00;;;16.20;57.90;;;;;;5085907;28;45143;-71
2022/11/30 07:19:37;;;;;;;3.67;1.92;;;16.10;57.80;;;;;;5085774;28;46361;-71
2022/11/30 07:22:05;;;;;;;3.17;2.05;;;16.10;57.90;;;;;;5085642;28;45335;-71
2022/11/30 07:27:17;;;;;;;2.20;2.00;;;16.10;57.90;;;;;;5083691;28;45281;-71
2022/11/30 07:29:43;;;;;;;2.08;1.80;;;16.10;58.00;;;;;;5085616;28;46628;-71
2022/11/30 07:32:11;;;;;;;1.88;1.60;;;16.10;58.00;;;;;;5087932;27;45209;-72
2022/11/30 07:34:37;;;;;;;2.13;1.85;;;16.10;58.00;;;;;;5089282;28;45295;-71
2022/11/30 07:37:07;;;;;;;1.83;1.73;;;16.00;58.00;;;;;;5089439;28;45253;-71
2022/11/30 07:39:35;;;;;;;2.10;1.98;;;16.00;58.00;;;;;;5097424;27;46610;-71
2022/11/30 07:42:02;;;;;;;2.03;1.92;;;16.10;58.10;;;;;;5109316;27;45297;-72
2022/11/30 07:44:29;;;;;;;2.20;2.00;;;16.10;58.10;;;;;;5109307;27;45378;-71
2022/11/30 07:46:56;;;;;;;2.40;2.03;;;16.00;58.00;;;;;;5099210;27;45284;-71
2022/11/30 07:49:23;;;;;;;1.80;1.70;;;16.00;58.10;;;;;;5088775;28;45497;-72
2022/11/30 07:51:50;;;;;;;2.00;1.80;;;16.00;58.10;;;;;;5087945;28;45215;-71
2022/11/30 07:54:18;;;;;;;2.13;1.92;;;16.00;58.10;;;;;;5088749;28;45316;-71
2022/11/30 07:56:45;;;;;;;1.80;1.70;;;16.00;58.10;;;;;;5088983;28;45473;-71
2022/11/30 07:59:12;;;;;;;2.33;2.13;;;16.00;58.10;;;;;;5088882;28;47362;-71
2022/11/30 08:01:40;;;;;;;2.28;1.80;;;16.00;58.10;;;;;;5088651;28;45211;-71
2022/11/30 08:04:07;;;;;;;2.30;2.10;;;16.00;58.20;;;;;;5088742;28;45342;-71
2022/11/30 08:06:34;;;;;;;2.70;1.60;;;16.00;58.20;;;;;;5089193;28;45407;-71
2022/11/30 08:09:02;;;;;;;1.98;1.80;;;16.00;58.30;;;;;;5088610;28;45753;-71
2022/11/30 08:11:32;;;;;;;2.00;1.85;;;15.90;58.20;;;;;;5088760;28;45233;-71
2022/11/30 08:13:59;;;;;;;2.13;1.88;;;15.90;58.20;;;;;;5088427;28;45353;-72
2022/11/30 08:16:26;;;;;;;1.83;1.73;;;15.90;58.30;;;;;;5088807;28;45287;-71
2022/11/30 08:18:54;;;;;;;2.08;1.90;;;15.90;58.20;;;;;;5088239;28;46745;-72
2022/11/30 08:21:22;;;;;;;1.85;1.65;;;15.90;58.30;;;;;;5088501;28;45142;-72
2022/11/30 08:23:49;;;;;;;1.95;1.60;;;16.00;58.30;;;;;;5088284;28;45317;-71
2022/11/30 08:26:17;;;;;;;1.75;1.65;;;16.00;58.10;;;;;;5088776;28;45248;-71
2022/11/30 08:28:46;;;;;;;1.85;1.75;;;16.10;58.00;;;;;;5088549;28;46492;-71
2022/11/30 08:31:14;;;;;;;1.90;1.73;;;16.10;57.90;;;;;;5088345;28;45400;-72
2022/11/30 08:33:41;;;;;;;1.67;1.58;;;16.20;57.90;;;;;;5088202;28;45383;-72
2022/11/30 08:36:09;;;;;;;2.20;2.00;;;16.20;57.80;;;;;;5088048;28;45692;-71
2022/11/30 08:38:36;;;;;;;2.08;1.70;;;16.20;57.70;;;;;;5087909;27;45475;-72
2022/11/30 08:41:03;;;;;;;3.38;2.13;;;16.20;57.70;;;;;;5108692;27;45430;-72
2022/11/30 08:43:29;;;;;;;2.00;1.80;;;16.20;57.70;;;;;;5108376;27;45310;-71
2022/11/30 08:45:58;;;;;;;2.65;2.20;;;16.20;57.70;;;;;;5106467;27;45404;-71
2022/11/30 08:48:25;;;;;;;1.90;1.80;;;16.20;57.70;;;;;;5087717;28;45441;-72
2022/11/30 08:50:52;;;;;;;1.90;1.80;;;16.20;57.70;;;;;;5087657;28;45248;-72
2022/11/30 08:53:19;;;;;;;2.30;2.10;;;16.20;57.70;;;;;;5087948;28;45248;-71
2022/11/30 08:55:57;;;;;;;2.22;2.03;;;16.20;57.70;;;;;;5088079;28;45356;-71
2022/11/30 08:58:24;;;;;;;1.98;1.80;;;16.20;57.70;;;;;;5087676;28;46513;-72
2022/11/30 09:00:51;;;;;;;2.88;2.30;;;16.20;57.70;;;;;;5087726;28;45240;-71
2022/11/30 09:03:19;;;;;;;2.20;2.00;;;16.20;57.80;;;;;;5087972;28;45321;-71
2022/11/30 09:05:47;;;;;;;1.98;1.75;;;16.20;57.80;;;;;;5088054;28;45507;-71
2022/11/30 09:08:14;;;;;;;2.08;1.80;;;16.10;57.80;;;;;;5087602;28;45415;-71
2022/11/30 09:10:41;;;;;;;2.03;1.80;;;16.20;57.80;;;;;;5087630;28;45223;-72
2022/11/30 09:13:08;;;;;;;2.13;1.92;;;16.20;57.80;;;;;;5087575;28;45332;-71
2022/11/30 09:15:35;;;;;;;2.33;2.13;;;16.20;57.80;;;;;;5087685;28;45393;-70
2022/11/30 09:18:02;;;;;;;3.20;2.15;;;16.20;57.80;;;;;;5087386;28;46647;-71
2022/11/30 09:20:32;;;;;;;2.10;1.90;;;16.20;57.80;;;;;;5087393;28;45142;-71
2022/11/30 09:23:00;;;;;;;2.00;1.90;;;16.20;57.80;;;;;;5087127;28;45316;-71
2022/11/30 09:25:26;;;;;;;3.20;2.20;;;16.20;57.80;;;;;;5086992;28;45635;-72
2022/11/30 09:27:54;;;;;;;2.50;2.30;;;16.20;57.80;;;;;;5087160;28;45479;-72
2022/11/30 09:30:21;;;;;;;2.72;2.05;;;16.20;57.80;;;;;;5087229;28;45213;-71
2022/11/30 09:32:48;;;;;;;2.13;1.85;;;16.20;57.80;;;;;;5087411;28;45453;-71
2022/11/30 09:35:15;;;;;;;1.95;1.85;;;16.20;57.80;;;;;;5087434;28;45599;-71
2022/11/30 09:37:44;;;;;;;2.72;2.10;;;16.20;57.80;;;;;;5086879;28;46501;-71
2022/11/30 09:40:13;;;;;;;2.20;1.90;;;16.20;57.80;;;;;;5101100;27;45178;-71
2022/11/30 09:42:43;;;;;;;2.53;2.10;;;16.20;57.90;;;;;;5107378;27;45267;-71
2022/11/30 09:45:14;;;;;;;2.35;2.15;;;16.20;57.90;;;;;;5107777;27;45121;-71
2022/11/30 09:48:05;;;;;;;2.15;1.95;;;16.20;57.90;;;;;;5090683;27;46406;-72
2022/11/30 09:50:33;;;;;;;2.72;2.35;;;16.10;58.00;;;;;;5079134;28;45221;-71
2022/11/30 09:53:03;;;;;;;2.35;2.15;;;16.10;58.00;;;;;;5086985;28;45468;-71
2022/11/30 09:55:32;;;;;;;2.67;2.13;;;16.10;58.00;;;;;;5086427;28;45224;-71
2022/11/30 09:58:01;;;;;;;2.05;1.95;;;16.20;58.10;;;;;;5086938;28;46847;-71
2022/11/30 10:00:28;;;;;;;2.53;2.10;;;16.20;58.00;;;;;;5086687;28;45712;-72
2022/11/30 10:02:55;;;;;;;2.53;2.15;;;16.20;58.10;;;;;;5086604;28;45213;-71
2022/11/30 10:05:23;;;;;;;2.72;2.00;;;16.20;58.10;;;;;;5086936;28;45471;-72
2022/11/30 10:08:00;;;;;;;2.67;2.33;;;16.20;58.20;;;;;;5086524;28;45619;-71
2022/11/30 10:10:32;;;;;;;2.08;1.90;;;16.20;58.30;;;;;;5086660;28;45375;-71
2022/11/30 10:13:05;;;;;;;2.42;2.22;;;16.10;58.30;;;;;;5086677;28;45406;-71
2022/11/30 10:15:48;;;;;;;2.63;2.13;;;16.10;58.30;;;;;;5086850;28;45262;-72
2022/11/30 10:18:18;;;;;;;2.60;1.85;;;16.20;58.40;;;;;;5086513;28;45489;-71
2022/11/30 10:20:52;;;;;;;3.50;2.03;;;16.20;58.40;;;;;;5086394;28;45316;-72
2022/11/30 10:23:37;;;;;;;2.65;2.20;;;16.20;58.40;;;;;;5086576;28;45476;-71
2022/11/30 10:26:07;;;;;;;2.03;1.83;;;16.10;58.40;;;;;;5086794;28;45319;-71
2022/11/30 10:28:41;;;;;;;3.22;2.40;;;16.10;58.40;;;;;;5086405;28;47029;-71
2022/11/30 10:31:09;;;;;;;2.38;1.85;;;16.10;58.40;;;;;;5086192;28;45322;-71
2022/11/30 10:33:39;;;;;;;2.50;2.30;;;16.20;58.40;;;;;;5086334;28;45218;-74
2022/11/30 10:36:09;;;;;;;2.25;2.05;;;16.10;58.60;;;;;;5087210;28;45459;-74
2022/11/30 10:38:39;;;;;;;4.43;2.35;;;16.20;60.20;;;;;;5087064;27;45352;-71
2022/11/30 10:41:10;;;;;;;2.97;2.33;;;16.20;60.90;;;;;;5107387;27;45314;-74
2022/11/30 10:43:39;;;;;;;4.07;2.50;;;16.30;61.20;;;;;;5107310;27;45250;-77
2022/11/30 10:46:06;;;;;;;4.65;2.40;;;16.40;61.10;;;;;;5103399;27;45498;-75
2022/11/30 10:48:37;;;;;;;4.22;3.00;;;16.50;59.80;;;;;;5086143;28;45456;-75
2022/11/30 10:51:04;;;;;;;3.53;2.83;;;16.50;59.30;;;;;;5086293;28;45494;-80
2022/11/30 10:53:31;;;;;;;5.05;2.80;;;16.60;58.80;;;;;;5086791;28;45324;-78
2022/11/30 10:56:00;;;;;;;6.47;3.10;;;16.70;58.90;;;;;;5086334;28;45577;-75
2022/11/30 10:58:30;;;;;;;3.30;2.72;;;16.80;58.80;;;;;;5086334;28;45660;-75
2022/11/30 11:01:02;;;;;;;8.25;5.32;;;16.80;59.30;;;;;;5086232;28;45273;-72
2022/11/30 11:03:29;;;;;;;15.40;13.07;;;16.90;58.70;;;;;;5086521;28;45325;-72
2022/11/30 11:06:12;;;;;;;18.75;15.82;;;16.90;58.40;;;;;;5088168;27;45292;-72
2022/11/30 11:08:41;;;;;;;17.23;15.38;;;16.90;58.40;;;;;;5087471;28;46650;-68
2022/11/30 11:11:33;;;;;;;19.45;13.45;;;16.90;58.60;;;;;;5089541;28;45338;-75
2022/11/30 11:14:18;;;;;;;12.73;10.55;;;17.00;58.60;;;;;;5089731;28;45319;-73
2022/11/30 11:16:52;;;;;;;12.18;7.75;;;17.00;58.40;;;;;;5090268;28;45314;-73
2022/11/30 11:19:24;;;;;;;10.80;7.25;;;17.10;58.50;;;;;;5088961;28;46597;-76
2022/11/30 11:21:51;;;;;;;14.27;10.88;;;17.10;58.40;;;;;;5089751;28;45217;-77
2022/11/30 11:24:19;;;;;;;13.15;9.90;;;17.10;58.60;;;;;;5090057;28;45343;-80
2022/11/30 11:26:49;;;;;;;9.23;6.85;;;17.20;59.20;;;;;;5091136;28;45618;-81
2022/11/30 11:29:30;;;;;;;9.95;8.13;;;17.30;58.00;;;;;;5090154;28;45567;-79
2022/11/30 11:32:09;;;;;;;8.40;6.00;;;17.30;58.20;;;;;;5089688;28;45323;-72
2022/11/30 11:34:37;;;;;;;14.57;12.68;;;17.40;57.80;;;;;;5089432;28;45151;-73
2022/11/30 11:37:08;;;;;;;9.90;8.90;;;17.40;57.10;;;;;;5089773;28;45241;-76
2022/11/30 11:39:37;;;;;;;13.88;7.40;;;17.40;57.10;;;;;;5098356;27;46736;-75
2022/11/30 11:42:05;;;;;;;14.00;7.00;;;17.40;57.20;;;;;;5110355;27;45317;-78
2022/11/30 11:44:33;;;;;;;11.13;10.02;;;17.50;57.20;;;;;;5109831;27;45235;-75
2022/11/30 11:47:01;;;;;;;17.33;13.75;;;17.60;57.40;;;;;;5098779;27;45420;-71
2022/11/30 11:49:28;;;;;;;23.00;20.52;;;17.60;57.20;;;;;;5088550;28;46296;-72
2022/11/30 11:52:01;;;;;;;22.90;20.50;;;17.70;57.00;;;;;;5088418;28;45532;-72
2022/11/30 11:54:31;;;;;;;24.45;21.58;;;17.70;57.30;;;;;;5088551;28;45200;-72
2022/11/30 11:56:57;;;;;;;23.20;20.77;;;17.80;56.50;;;;;;5088886;28;45395;-73
2022/11/30 11:59:31;;;;;;;21.58;19.45;;;17.90;56.20;;;;;;5088703;28;45527;-76
2022/11/30 12:02:01;;;;;;;24.23;21.73;;;17.90;56.00;;;;;;5088564;28;45340;-72
2022/11/30 12:04:43;;;;;;;24.17;21.88;;;17.90;55.80;;;;;;5088318;28;45205;-72
2022/11/30 12:07:14;;;;;;;22.45;20.35;;;18.00;55.80;;;;;;5088529;28;45364;-72
2022/11/30 12:09:53;;;;;;;19.38;16.98;;;18.00;55.40;;;;;;5088214;28;46439;-72
2022/11/30 12:12:20;;;;;;;18.45;14.98;;;17.90;55.20;;;;;;5088649;28;45144;-73
2022/11/30 12:14:47;;;;;;;25.48;22.98;;;17.90;55.10;;;;;;5088527;28;45280;-71
2022/11/30 12:17:24;;;;;;;24.95;22.42;;;18.00;55.50;;;;;;5088126;27;45309;-73
2022/11/30 12:19:57;;;;;;;25.52;22.92;;;18.00;55.50;;;;;;5088556;28;47269;-72
2022/11/30 12:22:34;;;;;;;24.90;22.30;;;18.00;55.30;;;;;;5088364;28;45216;-73
2022/11/30 12:25:18;;;;;;;19.65;17.58;;;18.10;55.20;;;;;;5088463;28;45379;-72
2022/11/30 12:27:50;;;;;;;15.70;14.10;;;18.10;54.60;;;;;;5088773;28;45454;-73
2022/11/30 12:30:20;;;;;;;17.63;15.73;;;18.00;54.80;;;;;;5088335;28;45389;-72
2022/11/30 12:33:09;;;;;;;19.20;17.35;;;18.10;54.90;;;;;;5087987;28;45326;-73
2022/11/30 12:35:39;;;;;;;18.35;16.55;;;18.00;54.50;;;;;;5088263;28;45196;-72
2022/11/30 12:38:12;;;;;;;26.33;23.65;;;18.00;54.40;;;;;;5088563;28;45336;-73
2022/11/30 12:40:43;;;;;;;29.20;26.33;;;17.90;54.80;;;;;;5085506;27;46535;-71
2022/11/30 12:43:15;;;;;;;33.10;29.92;;;18.00;55.00;;;;;;5085875;28;45312;-73
2022/11/30 12:45:43;;;;;;;35.75;32.05;;;18.00;55.00;;;;;;5087767;28;45442;-73
2022/11/30 12:48:18;;;;;;;33.65;30.38;;;18.00;55.00;;;;;;5067895;28;45277;-72
2022/11/30 12:50:51;;;;;;;32.97;29.77;;;18.10;54.90;;;;;;5067522;28;45875;-76
2022/11/30 12:53:21;;;;;;;32.45;29.30;;;18.10;54.80;;;;;;5067513;28;45407;-74
2022/11/30 12:55:53;;;;;;;26.23;23.65;;;18.10;54.90;;;;;;5073906;28;45239;-73